createdAt,value
2018-10-02T00:00:22.298Z,101184.28
2018-10-02T00:02:51.167Z,101193.59
2018-10-02T00:05:20.149Z,101189.63
2018-10-02T00:07:49.166Z,101185.27
2018-10-02T00:10:17.973Z,101189.25
2018-10-02T00:12:52.015Z,101187.00
2018-10-02T00:15:22.525Z,101188.06
2018-10-02T00:17:51.586Z,101190.93
2018-10-02T00:20:20.456Z,101189.92
2018-10-02T00:22:49.205Z,101192.80
2018-10-02T00:25:18.291Z,101188.44
2018-10-02T00:27:47.181Z,101180.72
2018-10-02T00:30:15.913Z,101186.94
2018-10-02T00:32:44.938Z,101189.80
2018-10-02T00:35:13.640Z,101186.84
2018-10-02T00:37:42.824Z,101192.95
2018-10-02T00:40:11.689Z,101190.43
2018-10-02T00:42:40.514Z,101191.51
2018-10-02T00:45:09.622Z,101193.81
2018-10-02T00:47:38.359Z,101193.81
2018-10-02T00:50:07.159Z,101195.18
2018-10-02T00:52:35.908Z,101198.49
2018-10-02T00:55:05.073Z,101206.11
2018-10-02T00:57:33.868Z,101203.03
2018-10-02T01:00:02.854Z,101201.31
2018-10-02T01:02:31.701Z,101195.61
2018-10-02T01:05:00.466Z,101203.58
2018-10-02T01:07:30.254Z,101196.86
2018-10-02T01:09:59.497Z,101194.91
2018-10-02T01:12:28.316Z,101194.67
2018-10-02T01:14:57.082Z,101191.67
2018-10-02T01:17:25.868Z,101197.05
2018-10-02T01:19:55.074Z,101196.00
2018-10-02T01:22:23.774Z,101203.83
2018-10-02T01:24:52.649Z,101195.73
2018-10-02T01:27:21.842Z,101206.22
2018-10-02T01:29:51.818Z,101208.88
2018-10-02T01:32:21.308Z,101205.02
2018-10-02T01:34:51.119Z,101202.02
2018-10-02T01:37:20.455Z,101205.76
2018-10-02T01:39:50.081Z,101210.59
2018-10-02T01:42:18.780Z,101210.06
2018-10-02T01:44:47.509Z,101204.56
2018-10-02T01:47:17.249Z,101205.36
2018-10-02T01:49:47.599Z,101200.53
2018-10-02T01:52:16.628Z,101203.73
2018-10-02T01:54:45.352Z,101202.48
2018-10-02T01:57:14.672Z,101203.29
2018-10-02T01:59:43.717Z,101206.08
2018-10-02T02:02:12.592Z,101205.45
2018-10-02T02:04:41.316Z,101205.81
2018-10-02T02:07:10.302Z,101203.37
2018-10-02T02:09:39.009Z,101209.39
2018-10-02T02:12:08.483Z,101210.50
2018-10-02T02:14:37.216Z,101210.77
2018-10-02T02:17:06.295Z,101210.91
2018-10-02T02:19:35.342Z,101210.36
2018-10-02T02:22:05.426Z,101205.73
2018-10-02T02:24:34.543Z,101206.78
2018-10-02T02:27:04.034Z,101203.78
2018-10-02T02:29:33.619Z,101208.38
2018-10-02T02:32:03.146Z,101213.50
2018-10-02T02:34:34.236Z,101210.63
2018-10-02T02:37:04.165Z,101208.60
2018-10-02T02:39:34.130Z,101208.11
2018-10-02T02:42:03.624Z,101207.27
2018-10-02T02:44:32.800Z,101214.12
2018-10-02T02:47:07.585Z,101218.36
2018-10-02T02:49:42.324Z,101220.84
2018-10-02T02:52:12.813Z,101221.23
2018-10-02T02:54:42.711Z,101222.48
2018-10-02T02:57:12.366Z,101213.23
2018-10-02T02:59:41.907Z,101216.45
2018-10-02T03:02:12.463Z,101208.41
2018-10-02T03:04:43.248Z,101217.16
2018-10-02T03:07:12.103Z,101218.41
2018-10-02T03:09:40.888Z,101217.74
2018-10-02T03:12:16.206Z,101214.04
2018-10-02T03:14:45.054Z,101202.54
2018-10-02T03:17:13.907Z,101212.80
2018-10-02T03:19:42.655Z,101214.69
2018-10-02T03:22:11.363Z,101204.14
2018-10-02T03:24:40.523Z,101198.78
2018-10-02T03:27:09.709Z,101198.23
2018-10-02T03:29:38.919Z,101203.66
2018-10-02T03:32:08.825Z,101200.05
2018-10-02T03:34:38.120Z,101213.23
2018-10-02T03:37:07.523Z,101209.05
2018-10-02T03:39:37.386Z,101208.92
2018-10-02T03:42:06.735Z,101211.48
2018-10-02T03:44:36.103Z,101212.27
2018-10-02T03:47:06.057Z,101208.82
2018-10-02T03:49:36.050Z,101211.83
2018-10-02T03:52:05.159Z,101203.73
2018-10-02T03:54:34.459Z,101203.67
2018-10-02T03:57:03.849Z,101196.56
2018-10-02T03:59:32.973Z,101202.40
2018-10-02T04:02:03.586Z,101194.55
2018-10-02T04:04:32.940Z,101203.24
2018-10-02T04:07:02.533Z,101202.63
2018-10-02T04:09:31.638Z,101201.78
2018-10-02T04:12:00.756Z,101206.73
2018-10-02T04:14:29.494Z,101213.45
2018-10-02T04:16:58.725Z,101208.54
2018-10-02T04:19:27.751Z,101212.03
2018-10-02T04:21:56.576Z,101211.88
2018-10-02T04:24:25.784Z,101213.89
2018-10-02T04:26:55.153Z,101209.02
2018-10-02T04:29:24.052Z,101216.25
2018-10-02T04:31:53.394Z,101214.57
2018-10-02T04:34:22.576Z,101216.96
2018-10-02T04:36:51.948Z,101214.03
2018-10-02T04:39:21.100Z,101218.97
2018-10-02T04:41:50.586Z,101225.98
2018-10-02T04:44:19.934Z,101224.13
2018-10-02T04:46:49.370Z,101234.02
2018-10-02T04:49:18.075Z,101231.95
2018-10-02T04:51:47.559Z,101237.05
2018-10-02T04:54:16.815Z,101234.18
2018-10-02T04:56:45.950Z,101226.59
2018-10-02T04:59:15.312Z,101230.82
2018-10-02T05:01:44.142Z,101229.37
2018-10-02T05:04:13.716Z,101229.95
2018-10-02T05:06:42.946Z,101232.23
2018-10-02T05:09:12.344Z,101234.15
2018-10-02T05:11:41.299Z,101234.59
2018-10-02T05:14:10.104Z,101241.97
2018-10-02T05:16:39.058Z,101241.13
2018-10-02T05:19:07.788Z,101248.33
2018-10-02T05:21:36.888Z,101244.36
2018-10-02T05:24:05.611Z,101247.62
2018-10-02T05:26:34.380Z,101243.64
2018-10-02T05:29:03.493Z,101237.02
2018-10-02T05:31:32.196Z,101241.61
2018-10-02T05:34:00.960Z,101236.67
2018-10-02T05:36:30.955Z,101251.30
2018-10-02T05:39:00.839Z,101243.36
2018-10-02T05:41:29.909Z,101237.09
2018-10-02T05:43:58.736Z,101243.58
2018-10-02T05:46:27.540Z,101247.65
2018-10-02T05:48:57.053Z,101248.81
2018-10-02T05:51:27.087Z,101253.14
2018-10-02T05:53:56.332Z,101251.56
2018-10-02T05:56:25.798Z,101253.37
2018-10-02T05:58:55.019Z,101254.47
2018-10-02T06:01:24.915Z,101250.94
2018-10-02T06:03:54.201Z,101254.63
2018-10-02T06:06:23.617Z,101248.09
2018-10-02T06:08:52.768Z,101259.31
2018-10-02T06:11:22.762Z,101258.24
2018-10-02T06:13:53.204Z,101269.42
2018-10-02T06:16:23.767Z,101275.01
2018-10-02T06:18:55.553Z,101276.56
2018-10-02T06:21:25.956Z,101276.27
2018-10-02T06:23:57.760Z,101283.89
2018-10-02T06:26:28.604Z,101287.44
2018-10-02T06:28:58.806Z,101281.26
2018-10-02T06:31:29.136Z,101274.56
2018-10-02T06:33:59.755Z,101277.36
2018-10-02T06:36:29.763Z,101273.80
2018-10-02T06:38:59.836Z,101272.74
2018-10-02T06:41:29.642Z,101276.37
2018-10-02T06:43:59.423Z,101280.66
2018-10-02T06:46:31.978Z,101277.30
2018-10-02T06:49:07.027Z,101274.42
2018-10-02T06:54:53.874Z,101272.59
2018-10-02T06:57:23.554Z,101268.06
2018-10-02T06:59:52.745Z,101263.73
2018-10-02T07:02:35.806Z,101272.16
2018-10-02T07:05:06.619Z,101271.58
2018-10-02T07:07:39.018Z,101263.72
2018-10-02T07:10:16.951Z,101271.80
2018-10-02T07:12:46.075Z,101262.84
2018-10-02T07:15:14.862Z,101262.81
2018-10-02T07:17:45.286Z,101260.67
2018-10-02T07:20:14.083Z,101255.82
2018-10-02T07:22:42.936Z,101254.84
2018-10-02T07:25:11.765Z,101254.38
2018-10-02T07:27:40.995Z,101255.99
2018-10-02T07:30:09.851Z,101249.77
2018-10-02T07:32:38.937Z,101247.01
2018-10-02T07:35:08.035Z,101252.32
2018-10-02T07:37:36.893Z,101250.54
2018-10-02T07:40:06.038Z,101250.75
2018-10-02T07:42:34.867Z,101251.92
2018-10-02T07:45:03.861Z,101248.11
2018-10-02T07:47:32.669Z,101243.08
2018-10-02T07:50:01.353Z,101250.97
2018-10-02T07:52:30.578Z,101246.72
2018-10-02T07:54:59.550Z,101247.99
2018-10-02T07:57:28.317Z,101250.02
2018-10-02T07:59:57.502Z,101246.80
2018-10-02T08:02:26.528Z,101251.27
2018-10-02T08:04:55.528Z,101245.41
2018-10-02T08:07:24.567Z,101243.89
2018-10-02T08:09:53.510Z,101241.72
2018-10-02T08:12:22.584Z,101239.98
2018-10-02T08:14:57.157Z,101237.16
2018-10-02T08:17:30.574Z,101231.62
2018-10-02T08:20:02.021Z,101231.92
2018-10-02T08:22:31.624Z,101226.05
2018-10-02T08:25:01.802Z,101216.87
2018-10-02T08:27:31.128Z,101209.33
2018-10-02T08:30:00.441Z,101202.87
2018-10-02T08:32:29.728Z,101196.08
2018-10-02T08:34:58.494Z,101198.09
2018-10-02T08:37:27.669Z,101189.11
2018-10-02T08:39:56.800Z,101192.13
2018-10-02T08:42:25.505Z,101192.31
2018-10-02T08:44:54.614Z,101184.48
2018-10-02T08:47:23.534Z,101175.50
2018-10-02T08:49:52.269Z,101175.66
2018-10-02T08:52:21.122Z,101172.53
2018-10-02T08:54:50.151Z,101166.44
2018-10-02T08:57:18.956Z,101160.98
2018-10-02T08:59:48.192Z,101157.98
2018-10-02T09:02:17.031Z,101170.66
2018-10-02T09:04:46.160Z,101164.48
2018-10-02T09:07:14.963Z,101175.66
2018-10-02T09:09:44.173Z,101171.02
2018-10-02T09:12:13.628Z,101172.00
2018-10-02T09:14:43.146Z,101160.20
2018-10-02T09:17:11.883Z,101160.70
2018-10-02T09:19:40.649Z,101155.98
2018-10-02T09:22:10.330Z,101155.02
2018-10-02T09:24:39.308Z,101157.78
2018-10-02T09:27:08.407Z,101149.10
2018-10-02T09:29:43.442Z,101153.95
2018-10-02T09:32:17.320Z,101141.58
2018-10-02T09:34:51.257Z,101136.11
2018-10-02T09:37:25.367Z,101142.77
2018-10-02T09:39:59.390Z,101139.42
2018-10-02T09:42:33.746Z,101130.08
2018-10-02T09:45:02.798Z,101124.39
2018-10-02T09:47:31.663Z,101133.73
2018-10-02T09:50:00.471Z,101120.74
2018-10-02T09:52:29.875Z,101108.73
2018-10-02T09:54:58.854Z,101109.41
2018-10-02T09:57:27.907Z,101104.89
2018-10-02T09:59:56.725Z,101108.08
2018-10-02T10:02:30.894Z,101102.41
2018-10-02T10:04:59.935Z,101102.27
2018-10-02T10:07:29.008Z,101105.41
2018-10-02T10:09:58.362Z,101106.44
2018-10-02T10:12:27.127Z,101102.93
2018-10-02T10:14:56.483Z,101098.09
2018-10-02T10:17:25.358Z,101098.11
2018-10-02T10:19:54.139Z,101093.92
2018-10-02T10:22:23.461Z,101089.08
2018-10-02T10:24:52.233Z,101085.77
2018-10-02T10:27:21.060Z,101092.41
2018-10-02T10:29:49.926Z,101092.73
2018-10-02T10:32:18.935Z,101100.42
2018-10-02T10:34:48.056Z,101088.44
2018-10-02T10:37:16.985Z,101099.77
2018-10-02T10:39:45.918Z,101082.27
2018-10-02T10:42:14.778Z,101077.75
2018-10-02T10:44:43.558Z,101079.73
2018-10-02T10:47:13.243Z,101074.06
2018-10-02T10:49:43.467Z,101059.39
2018-10-02T10:52:14.600Z,101056.56
2018-10-02T10:54:53.912Z,101056.58
2018-10-02T10:57:24.212Z,101055.58
2018-10-02T10:59:53.758Z,101056.06
2018-10-02T11:02:23.606Z,101056.74
2018-10-02T11:04:54.188Z,101051.75
2018-10-02T11:07:23.694Z,101045.91
2018-10-02T11:09:52.771Z,101049.27
2018-10-02T11:12:21.784Z,101049.42
2018-10-02T11:14:51.009Z,101048.44
2018-10-02T11:17:20.960Z,101045.08
2018-10-02T11:19:51.227Z,101039.09
2018-10-02T11:22:20.254Z,101042.06
2018-10-02T11:24:50.048Z,101041.42
2018-10-02T11:27:20.673Z,101046.93
2018-10-02T11:29:50.644Z,101037.92
2018-10-02T11:32:21.251Z,101041.73
2018-10-02T11:34:50.707Z,101049.39
2018-10-02T11:37:20.775Z,101034.74
2018-10-02T11:39:51.311Z,101024.08
2018-10-02T11:42:20.486Z,101016.41
2018-10-02T11:44:51.534Z,101004.76
2018-10-02T11:47:21.174Z,100999.77
2018-10-02T11:49:50.128Z,100984.45
2018-10-02T11:52:18.979Z,100973.27
2018-10-02T11:54:48.338Z,100966.13
2018-10-02T11:57:17.086Z,100957.46
2018-10-02T11:59:46.203Z,100947.12
2018-10-02T12:02:15.302Z,100940.31
2018-10-02T12:04:44.249Z,100935.13
2018-10-02T12:07:14.240Z,100917.10
2018-10-02T12:09:43.841Z,100915.75
2018-10-02T12:12:14.066Z,100916.11
2018-10-02T12:14:43.246Z,100914.46
2018-10-02T12:17:14.493Z,100914.49
2018-10-02T12:19:44.051Z,100896.31
2018-10-02T12:22:12.774Z,100895.48
2018-10-02T12:24:41.954Z,100889.25
2018-10-02T12:27:11.301Z,100888.28
2018-10-02T12:29:41.118Z,100886.78
2018-10-02T12:32:11.185Z,100893.80
2018-10-02T12:34:40.331Z,100890.46
2018-10-02T12:37:10.603Z,100882.66
2018-10-02T12:39:40.388Z,100877.67
2018-10-02T12:42:10.462Z,100880.19
2018-10-02T12:44:40.894Z,100864.22
2018-10-02T12:47:09.919Z,100855.56
2018-10-02T12:49:39.379Z,100860.70
2018-10-02T12:52:08.506Z,100851.05
2018-10-02T12:54:38.220Z,100846.92
2018-10-02T12:57:07.577Z,100845.59
2018-10-02T12:59:36.462Z,100836.59
2018-10-02T13:02:05.272Z,100839.93
2018-10-02T13:04:34.031Z,100841.28
2018-10-02T13:07:02.841Z,100827.30
2018-10-02T13:09:31.965Z,100822.63
2018-10-02T13:12:01.029Z,100812.31
2018-10-02T13:14:30.162Z,100818.98
2018-10-02T13:16:59.179Z,100803.33
2018-10-02T13:19:28.630Z,100808.98
2018-10-02T13:21:58.182Z,100800.02
2018-10-02T13:24:28.096Z,100787.38
2018-10-02T13:26:59.023Z,100787.55
2018-10-02T13:29:28.882Z,100796.19
2018-10-02T13:31:59.924Z,100802.70
2018-10-02T13:34:29.599Z,100792.19
2018-10-02T13:36:59.776Z,100791.03
2018-10-02T13:39:30.075Z,100792.03
2018-10-02T13:41:59.653Z,100784.03
2018-10-02T13:44:28.788Z,100785.52
2018-10-02T13:46:58.265Z,100782.37
2018-10-02T13:49:27.860Z,100782.03
2018-10-02T13:51:57.543Z,100777.72
2018-10-02T13:54:27.599Z,100768.73
2018-10-02T13:56:57.682Z,100759.42
2018-10-02T13:59:26.616Z,100759.42
2018-10-02T14:01:55.623Z,100752.60
2018-10-02T14:04:25.071Z,100747.62
2018-10-02T14:06:55.684Z,100753.12
2018-10-02T14:09:25.275Z,100737.64
2018-10-02T14:11:54.375Z,100737.64
2018-10-02T14:14:24.113Z,100724.00
2018-10-02T14:16:53.483Z,100730.16
2018-10-02T14:19:22.641Z,100712.86
2018-10-02T14:21:51.551Z,100716.69
2018-10-02T14:24:20.424Z,100716.55
2018-10-02T14:26:50.849Z,100700.59
2018-10-02T14:29:20.819Z,100692.27
2018-10-02T14:31:50.985Z,100686.45
2018-10-02T14:34:20.875Z,100691.59
2018-10-02T14:36:50.130Z,100699.75
2018-10-02T14:39:19.187Z,100700.76
2018-10-02T14:41:49.528Z,100692.59
2018-10-02T14:44:19.056Z,100681.13
2018-10-02T14:46:49.077Z,100670.50
2018-10-02T14:49:18.212Z,100672.48
2018-10-02T14:51:47.738Z,100665.66
2018-10-02T14:54:16.679Z,100665.00
2018-10-02T14:56:45.934Z,100673.63
2018-10-02T14:59:15.319Z,100669.50
2018-10-02T15:01:45.431Z,100666.00
2018-10-02T15:04:15.070Z,100667.67
2018-10-02T15:06:44.161Z,100667.83
2018-10-02T15:09:13.361Z,100666.83
2018-10-02T15:11:48.507Z,100672.14
2018-10-02T15:14:17.928Z,100661.01
2018-10-02T15:16:50.930Z,100657.36
2018-10-02T15:19:21.220Z,100674.66
2018-10-02T15:21:51.334Z,100654.37
2018-10-02T15:24:20.228Z,100657.84
2018-10-02T15:26:54.648Z,100650.22
2018-10-02T15:29:24.597Z,100650.38
2018-10-02T15:31:53.683Z,100639.57
2018-10-02T15:34:22.909Z,100639.57
2018-10-02T15:36:53.054Z,100627.45
2018-10-02T15:39:23.767Z,100624.45
2018-10-02T15:41:55.197Z,100631.75
2018-10-02T15:44:24.295Z,100626.12
2018-10-02T15:46:54.194Z,100625.41
2018-10-02T15:49:24.987Z,100622.75
2018-10-02T15:51:55.207Z,100613.32
2018-10-02T15:54:24.217Z,100617.15
2018-10-02T15:56:54.012Z,100620.14
2018-10-02T15:59:23.722Z,100611.52
2018-10-02T16:01:53.448Z,100612.16
2018-10-02T16:04:22.576Z,100606.84
2018-10-02T16:06:52.258Z,100620.13
2018-10-02T16:09:21.522Z,100607.17
2018-10-02T16:11:51.824Z,100598.20
2018-10-02T16:14:21.627Z,100600.86
2018-10-02T16:16:51.208Z,100608.02
2018-10-02T16:19:20.234Z,100591.89
2018-10-02T16:21:50.598Z,100614.33
2018-10-02T16:24:19.710Z,100617.82
2018-10-02T16:26:48.809Z,100618.66
2018-10-02T16:29:18.117Z,100610.98
2018-10-02T16:31:48.109Z,100620.63
2018-10-02T16:34:17.294Z,100626.12
2018-10-02T16:36:47.211Z,100612.82
2018-10-02T16:39:17.233Z,100606.49
2018-10-02T16:41:46.418Z,100614.31
2018-10-02T16:44:16.064Z,100614.48
2018-10-02T16:46:45.241Z,100622.80
2018-10-02T16:49:15.920Z,100610.83
2018-10-02T16:51:47.333Z,100610.64
2018-10-02T16:54:16.493Z,100612.16
2018-10-02T16:56:46.006Z,100602.66
2018-10-02T16:59:15.765Z,100607.34
2018-10-02T17:01:45.370Z,100595.17
2018-10-02T17:04:14.178Z,100598.84
2018-10-02T17:06:43.797Z,100598.84
2018-10-02T17:09:13.331Z,100596.84
2018-10-02T17:11:44.157Z,100598.84
2018-10-02T17:14:13.181Z,100607.47
2018-10-02T17:16:43.270Z,100595.84
2018-10-02T17:19:12.158Z,100585.84
2018-10-02T17:21:41.035Z,100596.48
2018-10-02T17:24:11.693Z,100599.48
2018-10-02T17:26:40.774Z,100600.31
2018-10-02T17:29:10.672Z,100589.81
2018-10-02T17:31:39.746Z,100588.48
2018-10-02T17:34:09.971Z,100588.31
2018-10-02T17:36:39.860Z,100612.09
2018-10-02T17:39:11.180Z,100604.62
2018-10-02T17:41:40.748Z,100618.08
2018-10-02T17:44:09.679Z,100618.42
2018-10-02T17:46:39.746Z,100613.76
2018-10-02T17:49:08.775Z,100621.41
2018-10-02T17:51:38.964Z,100618.11
2018-10-02T17:54:08.159Z,100617.08
2018-10-02T17:56:38.435Z,100627.42
2018-10-02T17:59:07.620Z,100623.59
2018-10-02T18:01:36.859Z,100622.26
2018-10-02T18:04:05.707Z,100624.76
2018-10-02T18:06:34.453Z,100625.89
2018-10-02T18:09:03.363Z,100622.09
2018-10-02T18:11:32.544Z,100618.41
2018-10-02T18:14:01.786Z,100629.39
2018-10-02T18:16:32.707Z,100619.08
2018-10-02T18:19:01.710Z,100621.41
2018-10-02T18:21:31.579Z,100619.58
2018-10-02T18:24:00.841Z,100611.77
2018-10-02T18:26:29.664Z,100625.41
2018-10-02T18:28:58.526Z,100622.88
2018-10-02T18:31:27.575Z,100619.89
2018-10-02T18:33:56.426Z,100621.73
2018-10-02T18:36:25.253Z,100628.52
2018-10-02T18:38:56.689Z,100623.03
2018-10-02T18:41:25.936Z,100629.86
2018-10-02T18:43:55.989Z,100629.00
2018-10-02T18:46:25.062Z,100631.00
2018-10-02T18:48:54.794Z,100622.69
2018-10-02T18:51:25.389Z,100625.31
2018-10-02T18:53:55.436Z,100630.31
2018-10-02T18:56:25.771Z,100628.28
2018-10-02T18:58:55.119Z,100633.28
2018-10-02T19:01:24.001Z,100635.58
2018-10-02T19:03:52.832Z,100635.58
2018-10-02T19:06:21.675Z,100638.55
2018-10-02T19:08:55.986Z,100629.89
2018-10-02T19:11:32.822Z,100629.70
2018-10-02T19:14:02.129Z,100632.53
2018-10-02T19:16:33.077Z,100624.17
2018-10-02T19:19:01.943Z,100624.34
2018-10-02T19:21:31.061Z,100629.33
2018-10-02T19:24:00.442Z,100631.30
2018-10-02T19:26:30.088Z,100633.12
2018-10-02T19:28:59.507Z,100640.95
2018-10-02T19:31:34.352Z,100644.08
2018-10-02T19:34:04.766Z,100622.42
2018-10-02T19:36:33.673Z,100624.42
2018-10-02T19:39:08.043Z,100623.55
2018-10-02T19:41:37.497Z,100626.05
2018-10-02T19:44:09.541Z,100627.70
2018-10-02T19:46:49.463Z,100615.34
2018-10-02T19:49:21.623Z,100614.84
2018-10-02T19:51:58.027Z,100610.18
2018-10-02T19:54:27.293Z,100623.66
2018-10-02T19:56:57.092Z,100625.33
2018-10-02T19:59:26.194Z,100623.47
2018-10-02T20:01:57.879Z,100612.64
2018-10-02T20:04:26.932Z,100628.13
2018-10-02T20:06:56.017Z,100622.63
2018-10-02T20:09:25.547Z,100627.28
2018-10-02T20:11:54.818Z,100619.63
2018-10-02T20:14:23.631Z,100615.25
2018-10-02T20:16:52.828Z,100616.91
2018-10-02T20:19:22.037Z,100609.25
2018-10-02T20:21:50.910Z,100607.54
2018-10-02T20:24:20.374Z,100599.55
2018-10-02T20:26:49.707Z,100597.54
2018-10-02T20:29:18.616Z,100607.70
2018-10-02T20:31:51.202Z,100610.37
2018-10-02T20:34:20.575Z,100611.88
2018-10-02T20:36:49.759Z,100628.02
2018-10-02T20:39:18.902Z,100630.52
2018-10-02T20:41:48.012Z,100622.19
2018-10-02T20:44:16.886Z,100623.18
2018-10-02T20:46:46.047Z,100620.81
2018-10-02T20:49:14.953Z,100624.97
2018-10-02T20:51:43.917Z,100644.13
2018-10-02T20:54:12.856Z,100654.09
2018-10-02T20:56:41.891Z,100653.11
2018-10-02T20:59:11.171Z,100651.28
2018-10-02T21:01:40.652Z,100652.11
2018-10-02T21:04:09.612Z,100649.45
2018-10-02T21:06:38.510Z,100644.44
2018-10-02T21:09:08.379Z,100642.78
2018-10-02T21:11:37.655Z,100652.77
2018-10-02T21:14:06.661Z,100649.11
2018-10-02T21:16:35.544Z,100642.44
2018-10-02T21:19:04.434Z,100624.23
2018-10-02T21:21:33.576Z,100627.55
2018-10-02T21:24:02.378Z,100636.05
2018-10-02T21:26:31.274Z,100632.56
2018-10-02T21:29:00.447Z,100611.40
2018-10-02T21:31:29.644Z,100614.89
2018-10-02T21:33:58.513Z,100609.73
2018-10-02T21:36:27.388Z,100621.06
2018-10-02T21:38:56.298Z,100625.06
2018-10-02T21:41:26.134Z,100629.84
2018-10-02T21:43:55.442Z,100631.01
2018-10-02T21:46:24.537Z,100621.67
2018-10-02T21:48:54.739Z,100618.17
2018-10-02T21:51:23.607Z,100611.17
2018-10-02T21:53:52.358Z,100600.51
2018-10-02T21:56:22.787Z,100595.17
2018-10-02T21:58:52.427Z,100597.67
2018-10-02T22:01:22.429Z,100594.17
2018-10-02T22:03:51.510Z,100598.38
2018-10-02T22:06:21.455Z,100610.00
2018-10-02T22:08:51.389Z,100610.00
2018-10-02T22:11:20.983Z,100598.17
2018-10-02T22:13:52.042Z,100607.33
2018-10-02T22:16:21.327Z,100615.33
2018-10-02T22:18:51.075Z,100611.33
2018-10-02T22:21:22.369Z,100602.83
2018-10-02T22:23:52.964Z,100610.33
2018-10-02T22:26:24.121Z,100609.00
2018-10-02T22:28:53.546Z,100610.00
2018-10-02T22:31:23.846Z,100611.33
2018-10-02T22:33:54.119Z,100607.66
2018-10-02T22:36:23.430Z,100596.99
2018-10-02T22:38:52.626Z,100599.00
2018-10-02T22:41:21.806Z,100605.34
2018-10-02T22:43:50.972Z,100605.67
2018-10-02T22:46:20.068Z,100612.16
2018-10-02T22:48:48.875Z,100606.33
2018-10-02T22:51:17.878Z,100594.83
2018-10-02T22:53:46.731Z,100603.98
2018-10-02T22:56:15.808Z,100598.27
2018-10-02T22:58:44.904Z,100603.94
2018-10-02T23:01:13.967Z,100601.60
2018-10-02T23:03:42.767Z,100597.93
2018-10-02T23:06:11.952Z,100593.25
2018-10-02T23:08:41.105Z,100597.58
2018-10-02T23:11:10.201Z,100596.55
2018-10-02T23:13:39.387Z,100591.19
2018-10-02T23:16:09.636Z,100597.36
2018-10-02T23:18:38.902Z,100594.31
2018-10-02T23:21:08.434Z,100603.14
2018-10-02T23:23:37.414Z,100602.97
2018-10-02T23:26:06.539Z,100600.78
2018-10-02T23:28:35.894Z,100603.78
2018-10-02T23:31:06.195Z,100605.05
2018-10-02T23:33:36.072Z,100614.05
2018-10-02T23:36:05.887Z,100618.88
2018-10-02T23:38:37.066Z,100626.68
2018-10-02T23:41:06.180Z,100619.98
2018-10-02T23:43:34.912Z,100624.84
2018-10-02T23:46:03.645Z,100631.02
2018-10-02T23:48:32.679Z,100634.34
2018-10-02T23:51:01.537Z,100635.44
2018-10-02T23:53:30.329Z,100635.62
2018-10-02T23:55:59.353Z,100630.48
2018-10-02T23:58:30.105Z,100636.12
